sensor_id;sensor_type;location;lat;lon;timestamp;P1;durP1;ratioP1;P2;durP2;ratioP2
53145;SDS011;39042;53.150;5.898;2022-08-01T00:01:32;6.13;;;3.22;;
53145;SDS011;39042;53.150;5.898;2022-08-01T00:03:58;8.00;;;3.35;;
53145;SDS011;39042;53.150;5.898;2022-08-01T00:06:24;8.65;;;4.35;;
53145;SDS011;39042;53.150;5.898;2022-08-01T00:08:50;7.83;;;4.13;;
53145;SDS011;39042;53.150;5.898;2022-08-01T00:11:16;6.70;;;4.63;;
53145;SDS011;39042;53.150;5.898;2022-08-01T00:13:41;6.35;;;4.25;;
53145;SDS011;39042;53.150;5.898;2022-08-01T00:16:07;8.45;;;4.68;;
53145;SDS011;39042;53.150;5.898;2022-08-01T00:18:34;8.90;;;5.65;;
53145;SDS011;39042;53.150;5.898;2022-08-01T00:21:01;9.88;;;5.47;;
53145;SDS011;39042;53.150;5.898;2022-08-01T00:23:27;8.13;;;5.78;;
53145;SDS011;39042;53.150;5.898;2022-08-01T00:25:53;11.63;;;6.50;;
53145;SDS011;39042;53.150;5.898;2022-08-01T00:28:19;8.27;;;5.83;;
53145;SDS011;39042;53.150;5.898;2022-08-01T00:30:45;12.18;;;6.40;;
53145;SDS011;39042;53.150;5.898;2022-08-01T00:33:11;10.90;;;6.10;;
53145;SDS011;39042;53.150;5.898;2022-08-01T00:35:37;10.03;;;5.90;;
53145;SDS011;39042;53.150;5.898;2022-08-01T00:38:02;10.75;;;5.95;;
53145;SDS011;39042;53.150;5.898;2022-08-01T00:40:28;10.20;;;5.20;;
53145;SDS011;39042;53.150;5.898;2022-08-01T00:42:54;8.97;;;5.80;;
53145;SDS011;39042;53.150;5.898;2022-08-01T00:45:20;11.82;;;5.95;;
53145;SDS011;39042;53.150;5.898;2022-08-01T00:47:45;12.10;;;5.37;;
53145;SDS011;39042;53.150;5.898;2022-08-01T00:50:12;8.25;;;4.43;;
53145;SDS011;39042;53.150;5.898;2022-08-01T00:52:38;7.35;;;4.43;;
53145;SDS011;39042;53.150;5.898;2022-08-01T00:55:05;8.70;;;4.35;;
53145;SDS011;39042;53.150;5.898;2022-08-01T00:57:32;8.48;;;3.60;;
53145;SDS011;39042;53.150;5.898;2022-08-01T00:59:58;5.68;;;2.53;;
53145;SDS011;39042;53.150;5.898;2022-08-01T01:02:24;5.20;;;2.33;;
53145;SDS011;39042;53.150;5.898;2022-08-01T01:04:50;6.72;;;2.40;;
53145;SDS011;39042;53.150;5.898;2022-08-01T01:07:21;5.88;;;1.95;;
53145;SDS011;39042;53.150;5.898;2022-08-01T01:15:13;9.00;;;2.63;;
53145;SDS011;39042;53.150;5.898;2022-08-01T01:20:32;7.20;;;1.85;;
53145;SDS011;39042;53.150;5.898;2022-08-01T01:31:48;6.00;;;2.10;;
53145;SDS011;39042;53.150;5.898;2022-08-01T01:34:21;3.67;;;1.70;;
53145;SDS011;39042;53.150;5.898;2022-08-01T01:36:48;6.78;;;1.95;;
53145;SDS011;39042;53.150;5.898;2022-08-01T01:39:15;5.80;;;1.95;;
53145;SDS011;39042;53.150;5.898;2022-08-01T01:41:42;5.47;;;1.83;;
53145;SDS011;39042;53.150;5.898;2022-08-01T01:44:10;10.93;;;2.42;;
53145;SDS011;39042;53.150;5.898;2022-08-01T01:46:36;11.30;;;2.65;;
53145;SDS011;39042;53.150;5.898;2022-08-01T01:49:23;9.15;;;2.38;;
53145;SDS011;39042;53.150;5.898;2022-08-01T01:51:51;11.98;;;2.15;;
53145;SDS011;39042;53.150;5.898;2022-08-01T01:54:19;8.00;;;2.10;;
53145;SDS011;39042;53.150;5.898;2022-08-01T01:56:47;10.93;;;2.35;;
53145;SDS011;39042;53.150;5.898;2022-08-01T01:59:24;14.52;;;2.50;;
53145;SDS011;39042;53.150;5.898;2022-08-01T02:01:52;11.68;;;2.28;;
53145;SDS011;39042;53.150;5.898;2022-08-01T02:04:21;12.48;;;2.65;;
53145;SDS011;39042;53.150;5.898;2022-08-01T02:06:49;13.88;;;3.10;;
53145;SDS011;39042;53.150;5.898;2022-08-01T02:09:17;8.82;;;3.35;;
53145;SDS011;39042;53.150;5.898;2022-08-01T02:11:45;16.92;;;3.08;;
53145;SDS011;39042;53.150;5.898;2022-08-01T02:14:13;7.60;;;2.58;;
53145;SDS011;39042;53.150;5.898;2022-08-01T02:16:41;10.68;;;2.78;;
53145;SDS011;39042;53.150;5.898;2022-08-01T02:19:12;10.68;;;2.50;;
53145;SDS011;39042;53.150;5.898;2022-08-01T02:24:13;8.43;;;2.58;;
53145;SDS011;39042;53.150;5.898;2022-08-01T02:26:53;9.20;;;2.83;;
53145;SDS011;39042;53.150;5.898;2022-08-01T02:29:22;9.95;;;2.88;;
53145;SDS011;39042;53.150;5.898;2022-08-01T02:31:53;11.05;;;2.47;;
53145;SDS011;39042;53.150;5.898;2022-08-01T02:34:20;11.02;;;3.22;;
53145;SDS011;39042;53.150;5.898;2022-08-01T02:36:49;9.38;;;2.63;;
53145;SDS011;39042;53.150;5.898;2022-08-01T02:39:18;11.00;;;2.55;;
53145;SDS011;39042;53.150;5.898;2022-08-01T02:41:48;11.27;;;2.28;;
53145;SDS011;39042;53.150;5.898;2022-08-01T02:44:22;11.10;;;2.88;;
53145;SDS011;39042;53.150;5.898;2022-08-01T02:46:54;10.73;;;2.65;;
53145;SDS011;39042;53.150;5.898;2022-08-01T02:49:23;8.70;;;2.92;;
53145;SDS011;39042;53.150;5.898;2022-08-01T02:51:52;11.82;;;2.97;;
53145;SDS011;39042;53.150;5.898;2022-08-01T02:54:19;8.35;;;2.58;;
53145;SDS011;39042;53.150;5.898;2022-08-01T02:56:47;11.50;;;2.60;;
53145;SDS011;39042;53.150;5.898;2022-08-01T02:59:16;13.05;;;2.58;;
53145;SDS011;39042;53.150;5.898;2022-08-01T03:01:45;12.00;;;3.05;;
53145;SDS011;39042;53.150;5.898;2022-08-01T03:04:12;15.13;;;3.05;;
53145;SDS011;39042;53.150;5.898;2022-08-01T03:06:39;12.60;;;3.28;;
53145;SDS011;39042;53.150;5.898;2022-08-01T03:09:06;7.18;;;2.75;;
53145;SDS011;39042;53.150;5.898;2022-08-01T03:11:34;11.55;;;2.95;;
53145;SDS011;39042;53.150;5.898;2022-08-01T03:14:04;8.65;;;2.65;;
53145;SDS011;39042;53.150;5.898;2022-08-01T03:16:32;10.48;;;2.53;;
53145;SDS011;39042;53.150;5.898;2022-08-01T03:19:00;14.18;;;2.97;;
53145;SDS011;39042;53.150;5.898;2022-08-01T03:21:28;10.32;;;2.65;;
53145;SDS011;39042;53.150;5.898;2022-08-01T03:23:57;12.70;;;3.03;;
53145;SDS011;39042;53.150;5.898;2022-08-01T03:26:25;9.07;;;2.30;;
53145;SDS011;39042;53.150;5.898;2022-08-01T03:28:55;12.15;;;3.47;;
53145;SDS011;39042;53.150;5.898;2022-08-01T03:31:24;11.52;;;3.03;;
53145;SDS011;39042;53.150;5.898;2022-08-01T03:33:50;11.95;;;2.78;;
53145;SDS011;39042;53.150;5.898;2022-08-01T03:36:16;10.93;;;3.08;;
53145;SDS011;39042;53.150;5.898;2022-08-01T03:38:50;12.38;;;2.90;;
53145;SDS011;39042;53.150;5.898;2022-08-01T03:41:21;9.95;;;2.40;;
53145;SDS011;39042;53.150;5.898;2022-08-01T03:43:52;10.57;;;2.63;;
53145;SDS011;39042;53.150;5.898;2022-08-01T03:46:26;13.50;;;2.42;;
53145;SDS011;39042;53.150;5.898;2022-08-01T03:49:08;15.77;;;2.70;;
53145;SDS011;39042;53.150;5.898;2022-08-01T03:51:38;14.93;;;2.20;;
53145;SDS011;39042;53.150;5.898;2022-08-01T03:54:04;11.63;;;1.90;;
53145;SDS011;39042;53.150;5.898;2022-08-01T03:56:31;10.85;;;2.05;;
53145;SDS011;39042;53.150;5.898;2022-08-01T03:58:59;13.48;;;2.20;;
53145;SDS011;39042;53.150;5.898;2022-08-01T04:01:25;11.48;;;1.67;;
53145;SDS011;39042;53.150;5.898;2022-08-01T04:03:54;15.25;;;2.13;;
53145;SDS011;39042;53.150;5.898;2022-08-01T04:06:20;8.10;;;1.58;;
53145;SDS011;39042;53.150;5.898;2022-08-01T04:08:46;12.88;;;2.20;;
53145;SDS011;39042;53.150;5.898;2022-08-01T04:11:20;10.50;;;1.63;;
53145;SDS011;39042;53.150;5.898;2022-08-01T04:13:48;14.13;;;2.08;;
53145;SDS011;39042;53.150;5.898;2022-08-01T04:16:15;9.45;;;1.70;;
53145;SDS011;39042;53.150;5.898;2022-08-01T04:18:41;13.17;;;2.00;;
53145;SDS011;39042;53.150;5.898;2022-08-01T04:21:07;10.30;;;1.80;;
53145;SDS011;39042;53.150;5.898;2022-08-01T04:23:33;16.60;;;1.88;;
53145;SDS011;39042;53.150;5.898;2022-08-01T04:26:01;10.63;;;2.22;;
53145;SDS011;39042;53.150;5.898;2022-08-01T04:28:30;15.05;;;2.38;;
53145;SDS011;39042;53.150;5.898;2022-08-01T04:30:59;13.63;;;1.60;;
53145;SDS011;39042;53.150;5.898;2022-08-01T04:33:26;12.48;;;1.77;;
53145;SDS011;39042;53.150;5.898;2022-08-01T04:35:55;12.90;;;2.35;;
53145;SDS011;39042;53.150;5.898;2022-08-01T04:38:24;13.35;;;1.88;;
53145;SDS011;39042;53.150;5.898;2022-08-01T04:40:54;11.50;;;1.92;;
53145;SDS011;39042;53.150;5.898;2022-08-01T04:43:22;14.80;;;2.28;;
53145;SDS011;39042;53.150;5.898;2022-08-01T04:45:48;16.80;;;2.30;;
53145;SDS011;39042;53.150;5.898;2022-08-01T04:48:17;18.48;;;1.95;;
53145;SDS011;39042;53.150;5.898;2022-08-01T04:50:44;13.55;;;1.83;;
53145;SDS011;39042;53.150;5.898;2022-08-01T04:53:17;14.55;;;2.03;;
53145;SDS011;39042;53.150;5.898;2022-08-01T04:55:44;12.93;;;2.28;;
53145;SDS011;39042;53.150;5.898;2022-08-01T04:58:11;11.07;;;1.98;;
53145;SDS011;39042;53.150;5.898;2022-08-01T05:00:37;19.90;;;1.80;;
53145;SDS011;39042;53.150;5.898;2022-08-01T05:03:03;11.85;;;1.77;;
53145;SDS011;39042;53.150;5.898;2022-08-01T05:05:29;12.55;;;2.15;;
53145;SDS011;39042;53.150;5.898;2022-08-01T05:10:21;10.63;;;1.60;;
53145;SDS011;39042;53.150;5.898;2022-08-01T05:12:47;13.57;;;2.03;;
53145;SDS011;39042;53.150;5.898;2022-08-01T05:15:12;14.07;;;2.20;;
53145;SDS011;39042;53.150;5.898;2022-08-01T05:17:38;9.37;;;1.97;;
53145;SDS011;39042;53.150;5.898;2022-08-01T05:20:04;12.67;;;1.67;;
53145;SDS011;39042;53.150;5.898;2022-08-01T05:22:33;12.57;;;2.08;;
53145;SDS011;39042;53.150;5.898;2022-08-01T05:24:59;10.60;;;2.67;;
53145;SDS011;39042;53.150;5.898;2022-08-01T05:27:25;7.57;;;1.70;;
53145;SDS011;39042;53.150;5.898;2022-08-01T05:29:51;16.23;;;2.42;;
53145;SDS011;39042;53.150;5.898;2022-08-01T05:32:16;10.63;;;1.73;;
53145;SDS011;39042;53.150;5.898;2022-08-01T05:34:42;12.85;;;2.05;;
53145;SDS011;39042;53.150;5.898;2022-08-01T05:37:08;11.32;;;1.70;;
53145;SDS011;39042;53.150;5.898;2022-08-01T05:39:34;8.52;;;1.60;;
53145;SDS011;39042;53.150;5.898;2022-08-01T05:42:00;13.00;;;1.67;;
53145;SDS011;39042;53.150;5.898;2022-08-01T05:44:26;11.57;;;1.73;;
53145;SDS011;39042;53.150;5.898;2022-08-01T05:46:52;13.30;;;2.50;;
53145;SDS011;39042;53.150;5.898;2022-08-01T05:49:18;10.80;;;1.75;;
53145;SDS011;39042;53.150;5.898;2022-08-01T05:51:44;9.70;;;1.77;;
53145;SDS011;39042;53.150;5.898;2022-08-01T05:54:10;14.80;;;2.85;;
53145;SDS011;39042;53.150;5.898;2022-08-01T05:56:35;12.75;;;2.05;;
53145;SDS011;39042;53.150;5.898;2022-08-01T05:59:02;13.90;;;2.30;;
53145;SDS011;39042;53.150;5.898;2022-08-01T06:01:27;14.00;;;2.35;;
53145;SDS011;39042;53.150;5.898;2022-08-01T06:03:53;6.95;;;1.88;;
53145;SDS011;39042;53.150;5.898;2022-08-01T06:06:20;19.92;;;2.92;;
53145;SDS011;39042;53.150;5.898;2022-08-01T06:08:46;11.35;;;1.42;;
53145;SDS011;39042;53.150;5.898;2022-08-01T06:11:13;12.63;;;2.33;;
53145;SDS011;39042;53.150;5.898;2022-08-01T06:13:38;13.02;;;2.63;;
53145;SDS011;39042;53.150;5.898;2022-08-01T06:16:04;13.60;;;2.07;;
53145;SDS011;39042;53.150;5.898;2022-08-01T06:18:30;12.23;;;2.03;;
53145;SDS011;39042;53.150;5.898;2022-08-01T06:20:56;14.65;;;2.35;;
53145;SDS011;39042;53.150;5.898;2022-08-01T06:23:22;13.00;;;1.92;;
53145;SDS011;39042;53.150;5.898;2022-08-01T06:25:48;12.38;;;2.40;;
53145;SDS011;39042;53.150;5.898;2022-08-01T06:28:16;16.50;;;1.73;;
53145;SDS011;39042;53.150;5.898;2022-08-01T06:30:42;9.03;;;1.73;;
53145;SDS011;39042;53.150;5.898;2022-08-01T06:33:08;12.13;;;2.13;;
53145;SDS011;39042;53.150;5.898;2022-08-01T06:35:34;9.38;;;1.52;;
53145;SDS011;39042;53.150;5.898;2022-08-01T06:38:00;9.77;;;1.40;;
53145;SDS011;39042;53.150;5.898;2022-08-01T06:40:26;14.23;;;1.95;;
53145;SDS011;39042;53.150;5.898;2022-08-01T06:42:52;11.90;;;1.65;;
53145;SDS011;39042;53.150;5.898;2022-08-01T06:45:18;7.73;;;2.10;;
53145;SDS011;39042;53.150;5.898;2022-08-01T06:47:47;16.73;;;1.88;;
53145;SDS011;39042;53.150;5.898;2022-08-01T06:50:13;10.43;;;1.95;;
53145;SDS011;39042;53.150;5.898;2022-08-01T06:55:06;11.90;;;2.15;;
53145;SDS011;39042;53.150;5.898;2022-08-01T06:57:33;11.40;;;1.45;;
53145;SDS011;39042;53.150;5.898;2022-08-01T07:00:01;9.80;;;1.10;;
53145;SDS011;39042;53.150;5.898;2022-08-01T07:02:30;11.13;;;1.67;;
53145;SDS011;39042;53.150;5.898;2022-08-01T07:04:56;10.02;;;1.70;;
53145;SDS011;39042;53.150;5.898;2022-08-01T07:07:25;11.68;;;1.58;;
53145;SDS011;39042;53.150;5.898;2022-08-01T07:09:52;6.25;;;1.02;;
53145;SDS011;39042;53.150;5.898;2022-08-01T07:12:17;9.50;;;1.23;;
53145;SDS011;39042;53.150;5.898;2022-08-01T07:14:43;10.30;;;1.60;;
53145;SDS011;39042;53.150;5.898;2022-08-01T07:17:09;12.95;;;1.45;;
53145;SDS011;39042;53.150;5.898;2022-08-01T07:19:35;10.88;;;1.30;;
53145;SDS011;39042;53.150;5.898;2022-08-01T07:22:02;11.35;;;1.65;;
53145;SDS011;39042;53.150;5.898;2022-08-01T07:24:28;9.50;;;1.27;;
53145;SDS011;39042;53.150;5.898;2022-08-01T07:26:54;11.98;;;1.75;;
53145;SDS011;39042;53.150;5.898;2022-08-01T07:29:26;11.80;;;1.63;;
53145;SDS011;39042;53.150;5.898;2022-08-01T07:31:56;8.43;;;1.15;;
53145;SDS011;39042;53.150;5.898;2022-08-01T07:34:23;10.82;;;0.90;;
53145;SDS011;39042;53.150;5.898;2022-08-01T07:36:50;8.52;;;1.40;;
53145;SDS011;39042;53.150;5.898;2022-08-01T07:39:17;9.27;;;1.05;;
53145;SDS011;39042;53.150;5.898;2022-08-01T07:41:43;9.77;;;1.33;;
53145;SDS011;39042;53.150;5.898;2022-08-01T07:44:09;9.00;;;1.60;;
53145;SDS011;39042;53.150;5.898;2022-08-01T07:46:34;8.25;;;1.60;;
53145;SDS011;39042;53.150;5.898;2022-08-01T07:49:00;9.48;;;1.23;;
53145;SDS011;39042;53.150;5.898;2022-08-01T07:51:26;9.73;;;1.10;;
53145;SDS011;39042;53.150;5.898;2022-08-01T07:53:52;7.67;;;1.10;;
53145;SDS011;39042;53.150;5.898;2022-08-01T07:56:18;12.43;;;1.45;;
53145;SDS011;39042;53.150;5.898;2022-08-01T07:58:44;8.93;;;1.02;;
53145;SDS011;39042;53.150;5.898;2022-08-01T08:01:11;11.43;;;1.30;;
53145;SDS011;39042;53.150;5.898;2022-08-01T08:03:37;8.48;;;1.00;;
53145;SDS011;39042;53.150;5.898;2022-08-01T08:06:03;8.57;;;1.63;;
53145;SDS011;39042;53.150;5.898;2022-08-01T08:08:29;8.63;;;1.27;;
53145;SDS011;39042;53.150;5.898;2022-08-01T08:10:55;8.57;;;1.10;;
53145;SDS011;39042;53.150;5.898;2022-08-01T08:13:20;9.38;;;0.93;;
53145;SDS011;39042;53.150;5.898;2022-08-01T08:15:47;7.93;;;1.85;;
53145;SDS011;39042;53.150;5.898;2022-08-01T08:18:13;8.77;;;1.45;;
53145;SDS011;39042;53.150;5.898;2022-08-01T08:20:38;10.87;;;1.07;;
53145;SDS011;39042;53.150;5.898;2022-08-01T08:23:04;6.63;;;1.25;;
53145;SDS011;39042;53.150;5.898;2022-08-01T08:25:50;10.85;;;1.20;;
53145;SDS011;39042;53.150;5.898;2022-08-01T08:28:15;5.60;;;0.60;;
53145;SDS011;39042;53.150;5.898;2022-08-01T08:30:41;7.87;;;0.80;;
53145;SDS011;39042;53.150;5.898;2022-08-01T08:33:07;8.73;;;0.60;;
53145;SDS011;39042;53.150;5.898;2022-08-01T08:35:33;6.85;;;1.08;;
53145;SDS011;39042;53.150;5.898;2022-08-01T08:56:34;7.80;;;0.55;;
53145;SDS011;39042;53.150;5.898;2022-08-01T08:59:01;5.00;;;0.50;;
53145;SDS011;39042;53.150;5.898;2022-08-01T09:01:28;5.00;;;0.50;;
53145;SDS011;39042;53.150;5.898;2022-08-01T09:03:54;8.45;;;0.85;;
53145;SDS011;39042;53.150;5.898;2022-08-01T09:06:20;6.35;;;0.98;;
53145;SDS011;39042;53.150;5.898;2022-08-01T09:08:46;5.93;;;0.70;;
53145;SDS011;39042;53.150;5.898;2022-08-01T09:11:12;6.70;;;0.73;;
53145;SDS011;39042;53.150;5.898;2022-08-01T09:13:37;4.63;;;1.00;;
53145;SDS011;39042;53.150;5.898;2022-08-01T09:16:04;6.32;;;0.80;;
53145;SDS011;39042;53.150;5.898;2022-08-01T09:18:39;8.35;;;0.98;;
53145;SDS011;39042;53.150;5.898;2022-08-01T09:23:38;5.43;;;0.65;;
53145;SDS011;39042;53.150;5.898;2022-08-01T09:26:11;6.07;;;0.68;;
53145;SDS011;39042;53.150;5.898;2022-08-01T09:28:39;9.13;;;1.05;;
53145;SDS011;39042;53.150;5.898;2022-08-01T09:36:25;6.28;;;0.60;;
53145;SDS011;39042;53.150;5.898;2022-08-01T09:38:53;5.88;;;0.60;;
53145;SDS011;39042;53.150;5.898;2022-08-01T09:41:29;5.35;;;0.40;;
53145;SDS011;39042;53.150;5.898;2022-08-01T09:43:58;5.43;;;0.47;;
53145;SDS011;39042;53.150;5.898;2022-08-01T09:46:24;7.38;;;0.60;;
53145;SDS011;39042;53.150;5.898;2022-08-01T09:51:33;3.30;;;0.82;;
53145;SDS011;39042;53.150;5.898;2022-08-01T09:54:01;5.22;;;0.50;;
53145;SDS011;39042;53.150;5.898;2022-08-01T11:46:50;2.92;;;0.50;;
53145;SDS011;39042;53.150;5.898;2022-08-01T11:52:10;4.95;;;0.50;;
53145;SDS011;39042;53.150;5.898;2022-08-01T11:54:40;5.80;;;0.95;;
53145;SDS011;39042;53.150;5.898;2022-08-01T11:57:10;4.85;;;0.50;;
53145;SDS011;39042;53.150;5.898;2022-08-01T11:59:44;3.08;;;0.40;;
53145;SDS011;39042;53.150;5.898;2022-08-01T12:02:15;5.85;;;0.47;;
53145;SDS011;39042;53.150;5.898;2022-08-01T12:04:50;3.08;;;0.82;;
53145;SDS011;39042;53.150;5.898;2022-08-01T12:07:24;7.30;;;0.63;;
53145;SDS011;39042;53.150;5.898;2022-08-01T12:12:29;4.57;;;0.60;;
53145;SDS011;39042;53.150;5.898;2022-08-01T12:14:59;4.45;;;0.40;;
53145;SDS011;39042;53.150;5.898;2022-08-01T12:17:29;6.72;;;0.40;;
53145;SDS011;39042;53.150;5.898;2022-08-01T12:19:56;3.30;;;0.55;;
53145;SDS011;39042;53.150;5.898;2022-08-01T12:22:22;3.30;;;0.30;;
53145;SDS011;39042;53.150;5.898;2022-08-01T12:24:50;3.58;;;0.30;;
53145;SDS011;39042;53.150;5.898;2022-08-01T12:27:29;4.05;;;0.50;;
53145;SDS011;39042;53.150;5.898;2022-08-01T12:29:56;3.22;;;0.40;;
53145;SDS011;39042;53.150;5.898;2022-08-01T12:35:02;6.93;;;0.50;;
53145;SDS011;39042;53.150;5.898;2022-08-01T12:37:28;4.40;;;0.95;;
53145;SDS011;39042;53.150;5.898;2022-08-01T12:39:54;4.47;;;0.60;;
53145;SDS011;39042;53.150;5.898;2022-08-01T12:42:21;3.85;;;0.57;;
53145;SDS011;39042;53.150;5.898;2022-08-01T12:44:48;3.58;;;0.50;;
53145;SDS011;39042;53.150;5.898;2022-08-01T12:47:17;3.83;;;0.30;;
53145;SDS011;39042;53.150;5.898;2022-08-01T12:49:45;4.47;;;0.40;;
53145;SDS011;39042;53.150;5.898;2022-08-01T12:52:12;5.25;;;0.30;;
53145;SDS011;39042;53.150;5.898;2022-08-01T23:59:58;6.53;;;1.80;;
